createdAt,value
2019-04-04T00:00:51.174Z,21.03
2019-04-04T00:03:22.873Z,20.97
2019-04-04T00:05:55.125Z,21.01
2019-04-04T00:08:30.945Z,20.98
2019-04-04T00:11:01.816Z,20.99
2019-04-04T00:13:33.959Z,20.96
2019-04-04T00:16:05.932Z,20.99
2019-04-04T00:18:37.753Z,20.98
2019-04-04T00:21:10.119Z,21.01
2019-04-04T00:23:41.830Z,21.04
2019-04-04T00:26:13.722Z,21.01
2019-04-04T00:28:46.078Z,21.00
2019-04-04T00:31:19.596Z,21.01
2019-04-04T00:33:51.675Z,21.00
2019-04-04T00:36:23.753Z,21.01
2019-04-04T00:38:55.809Z,21.05
2019-04-04T00:41:27.570Z,21.03
2019-04-04T00:43:59.282Z,21.03
2019-04-04T00:46:31.504Z,20.97
2019-04-04T00:49:04.936Z,20.94
2019-04-04T00:51:38.817Z,20.95
2019-04-04T00:54:12.102Z,20.95
2019-04-04T00:56:43.945Z,20.97
2019-04-04T00:59:16.878Z,20.97
2019-04-04T01:01:49.267Z,20.90
2019-04-04T01:04:21.078Z,20.89
2019-04-04T01:06:52.830Z,20.87
2019-04-04T01:09:24.601Z,20.84
2019-04-04T01:11:56.713Z,20.91
2019-04-04T01:14:29.190Z,20.85
2019-04-04T01:17:02.068Z,20.82
2019-04-04T01:19:35.337Z,20.88
2019-04-04T01:22:07.105Z,20.85
2019-04-04T01:24:39.131Z,20.83
2019-04-04T01:27:10.879Z,20.81
2019-04-04T01:29:42.656Z,20.81
2019-04-04T01:32:15.144Z,20.80
2019-04-04T01:34:48.013Z,20.78
2019-04-04T01:37:19.715Z,20.80
2019-04-04T01:39:51.565Z,20.81
2019-04-04T01:42:23.436Z,20.78
2019-04-04T01:44:53.939Z,20.76
2019-04-04T01:47:25.427Z,20.71
2019-04-04T01:49:57.288Z,20.74
2019-04-04T01:52:29.126Z,20.71
2019-04-04T01:55:02.958Z,20.70
2019-04-04T01:57:34.383Z,20.71
2019-04-04T02:00:07.958Z,20.76
2019-04-04T02:02:40.013Z,20.72
2019-04-04T02:05:11.783Z,20.72
2019-04-04T02:07:43.885Z,20.70
2019-04-04T02:10:17.151Z,20.59
2019-04-04T02:12:48.954Z,20.66
2019-04-04T02:15:20.661Z,20.66
2019-04-04T02:17:52.992Z,20.66
2019-04-04T02:20:26.987Z,20.63
2019-04-04T02:23:01.187Z,20.64
2019-04-04T02:25:35.965Z,20.70
2019-04-04T02:28:08.883Z,20.67
2019-04-04T02:30:49.937Z,20.63
2019-04-04T02:33:21.780Z,20.61
2019-04-04T02:35:53.473Z,20.65
2019-04-04T02:38:28.004Z,20.66
2019-04-04T02:40:59.070Z,20.62
2019-04-04T02:43:31.273Z,20.60
2019-04-04T02:46:03.306Z,20.58
2019-04-04T02:48:35.167Z,20.60
2019-04-04T02:51:08.094Z,20.59
2019-04-04T02:53:40.387Z,20.57
2019-04-04T02:56:12.099Z,20.61
2019-04-04T02:58:46.473Z,20.60
2019-04-04T03:01:17.599Z,20.64
2019-04-04T03:03:49.644Z,20.63
2019-04-04T03:06:24.516Z,20.61
2019-04-04T03:08:55.046Z,20.59
2019-04-04T03:11:26.978Z,20.55
2019-04-04T03:14:03.301Z,20.55
2019-04-04T03:16:32.363Z,20.52
2019-04-04T03:19:04.474Z,20.55
2019-04-04T03:21:36.571Z,20.58
2019-04-04T03:24:08.387Z,20.52
2019-04-04T03:26:40.343Z,20.53
2019-04-04T03:29:12.111Z,20.52
2019-04-04T03:31:44.601Z,20.50
2019-04-04T03:34:16.540Z,20.49
2019-04-04T03:36:48.207Z,20.52
2019-04-04T03:39:20.549Z,20.57
2019-04-04T03:41:52.700Z,20.47
2019-04-04T03:44:24.484Z,20.46
2019-04-04T03:46:56.587Z,20.48
2019-04-04T03:49:28.674Z,20.67
2019-04-04T03:52:00.334Z,20.98
2019-04-04T03:54:32.156Z,21.25
2019-04-04T03:57:03.758Z,21.48
2019-04-04T03:59:36.007Z,21.69
2019-04-04T04:02:07.734Z,21.90
2019-04-04T04:04:39.974Z,22.05
2019-04-04T04:07:14.225Z,22.17
2019-04-04T04:09:45.767Z,22.28
2019-04-04T04:12:17.524Z,22.36
2019-04-04T04:14:53.783Z,22.44
2019-04-04T04:17:22.579Z,22.51
2019-04-04T04:19:54.382Z,22.57
2019-04-04T04:22:26.032Z,22.62
2019-04-04T04:25:02.179Z,22.68
2019-04-04T04:27:31.427Z,22.73
2019-04-04T04:30:07.271Z,22.77
2019-04-04T04:32:37.718Z,22.81
2019-04-04T04:35:10.794Z,22.85
2019-04-04T04:37:42.956Z,22.88
2019-04-04T04:40:15.419Z,22.91
2019-04-04T04:42:47.611Z,22.94
2019-04-04T04:45:19.285Z,22.96
2019-04-04T04:47:51.021Z,22.99
2019-04-04T04:50:22.711Z,23.01
2019-04-04T04:52:54.604Z,23.05
2019-04-04T04:55:27.345Z,23.08
2019-04-04T04:57:59.885Z,23.10
2019-04-04T05:00:32.071Z,23.12
2019-04-04T05:03:03.792Z,23.13
2019-04-04T05:05:35.786Z,23.16
2019-04-04T05:08:10.118Z,23.18
2019-04-04T05:10:41.764Z,23.18
2019-04-04T05:13:13.569Z,23.26
2019-04-04T05:15:46.871Z,23.31
2019-04-04T05:18:18.563Z,23.35
2019-04-04T05:20:50.314Z,23.38
2019-04-04T05:23:22.131Z,23.42
2019-04-04T05:25:54.481Z,23.44
2019-04-04T05:28:26.505Z,23.41
2019-04-04T05:30:58.254Z,23.39
2019-04-04T05:33:31.547Z,23.38
2019-04-04T05:36:05.247Z,23.38
2019-04-04T05:38:37.348Z,23.38
2019-04-04T05:41:09.341Z,23.37
2019-04-04T05:43:41.158Z,23.38
2019-04-04T05:46:12.958Z,23.39
2019-04-04T05:48:54.002Z,23.40
2019-04-04T05:51:25.948Z,23.40
2019-04-04T05:53:57.981Z,23.40
2019-04-04T05:56:34.969Z,23.41
2019-04-04T05:59:06.695Z,23.41
2019-04-04T06:01:38.352Z,23.42
2019-04-04T06:04:10.240Z,23.43
2019-04-04T06:06:42.496Z,23.45
2019-04-04T06:09:14.868Z,23.45
2019-04-04T06:11:48.640Z,23.45
2019-04-04T06:14:29.926Z,23.46
2019-04-04T06:16:55.247Z,23.45
2019-04-04T06:19:30.122Z,23.46
2019-04-04T06:22:02.509Z,23.46
2019-04-04T06:24:34.058Z,23.46
2019-04-04T06:27:07.105Z,23.46
2019-04-04T06:29:40.111Z,23.47
2019-04-04T06:32:11.792Z,23.47
2019-04-04T06:34:44.319Z,23.48
2019-04-04T06:37:18.037Z,23.47
2019-04-04T06:39:50.521Z,23.48
2019-04-04T06:42:24.282Z,23.49
2019-04-04T06:44:56.169Z,23.50
2019-04-04T06:47:27.917Z,23.51
2019-04-04T06:49:59.672Z,23.51
2019-04-04T06:52:31.358Z,23.51
2019-04-04T06:55:03.182Z,23.51
2019-04-04T06:57:36.551Z,23.50
2019-04-04T07:00:15.371Z,23.52
2019-04-04T07:02:47.351Z,23.51
2019-04-04T07:05:19.725Z,23.52
2019-04-04T07:07:51.448Z,23.53
2019-04-04T07:10:23.273Z,23.51
2019-04-04T07:13:06.239Z,23.53
2019-04-04T07:15:28.709Z,23.53
2019-04-04T07:18:03.311Z,23.54
2019-04-04T07:20:35.504Z,23.54
2019-04-04T07:23:07.176Z,23.55
2019-04-04T07:25:39.792Z,23.55
2019-04-04T07:28:12.783Z,23.55
2019-04-04T07:30:44.929Z,23.56
2019-04-04T07:33:16.411Z,23.55
2019-04-04T07:35:48.914Z,23.56
2019-04-04T07:38:21.503Z,23.56
2019-04-04T07:40:53.186Z,23.57
2019-04-04T07:43:24.929Z,23.56
2019-04-04T07:46:15.339Z,23.58
2019-04-04T07:48:35.492Z,23.58
2019-04-04T07:51:07.376Z,23.58
2019-04-04T07:53:39.346Z,23.58
2019-04-04T07:56:12.157Z,23.57
2019-04-04T07:58:47.953Z,23.58
2019-04-04T08:01:19.631Z,23.59
2019-04-04T08:03:51.324Z,23.59
2019-04-04T08:06:23.527Z,23.59
2019-04-04T08:08:55.613Z,23.59
2019-04-04T08:11:27.326Z,23.60
2019-04-04T08:13:59.046Z,23.60
2019-04-04T08:16:31.122Z,23.60
2019-04-04T08:19:02.844Z,23.60
2019-04-04T08:21:34.599Z,23.60
2019-04-04T08:24:06.391Z,23.62
2019-04-04T08:26:38.202Z,23.61
2019-04-04T08:29:10.154Z,23.63
2019-04-04T08:31:42.075Z,23.62
2019-04-04T08:34:14.033Z,23.62
2019-04-04T08:36:45.886Z,23.61
2019-04-04T08:39:17.547Z,23.62
2019-04-04T08:41:52.230Z,23.62
2019-04-04T08:44:22.907Z,23.62
2019-04-04T08:46:55.709Z,23.62
2019-04-04T08:49:27.973Z,23.63
2019-04-04T08:52:00.351Z,23.63
2019-04-04T08:54:32.368Z,23.62
2019-04-04T08:57:04.529Z,23.61
2019-04-04T08:59:40.887Z,23.64
2019-04-04T09:02:26.813Z,23.62
2019-04-04T09:05:11.201Z,23.63
2019-04-04T09:07:32.998Z,23.64
2019-04-04T09:10:06.613Z,23.64
2019-04-04T09:12:38.302Z,23.63
2019-04-04T09:15:09.995Z,23.63
2019-04-04T09:17:42.259Z,23.64
2019-04-04T09:20:14.255Z,23.65
2019-04-04T09:22:46.004Z,23.64
2019-04-04T09:25:17.647Z,23.65
2019-04-04T09:27:49.570Z,23.65
2019-04-04T09:30:21.887Z,23.65
2019-04-04T09:32:53.644Z,23.64
2019-04-04T09:35:25.380Z,23.66
2019-04-04T09:37:57.585Z,23.66
2019-04-04T09:40:29.540Z,23.65
2019-04-04T09:43:01.269Z,23.67
2019-04-04T09:45:32.983Z,23.67
2019-04-04T09:48:05.083Z,23.67
2019-04-04T09:50:37.175Z,23.67
2019-04-04T09:53:09.003Z,23.68
2019-04-04T09:55:41.302Z,23.69
2019-04-04T09:58:13.345Z,23.69
2019-04-04T10:00:45.677Z,23.69
2019-04-04T10:03:17.526Z,23.68
2019-04-04T10:05:49.315Z,23.70
2019-04-04T10:08:21.090Z,23.69
2019-04-04T10:10:53.493Z,23.68
2019-04-04T10:13:25.150Z,23.70
2019-04-04T10:15:56.936Z,23.70
2019-04-04T10:18:28.577Z,23.69
2019-04-04T10:21:11.129Z,23.70
2019-04-04T10:23:36.779Z,23.71
2019-04-04T10:26:11.637Z,23.71
2019-04-04T10:28:43.889Z,23.72
2019-04-04T10:31:15.824Z,23.70
2019-04-04T10:33:47.407Z,23.72
2019-04-04T10:36:19.346Z,23.72
2019-04-04T10:38:51.470Z,23.72
2019-04-04T10:41:23.450Z,23.74
2019-04-04T10:43:55.212Z,23.71
2019-04-04T10:46:27.538Z,23.75
2019-04-04T10:49:04.875Z,23.74
2019-04-04T10:51:36.944Z,23.74
2019-04-04T10:54:09.287Z,23.74
2019-04-04T10:56:41.805Z,23.73
2019-04-04T10:59:13.967Z,23.74
2019-04-04T11:01:45.852Z,23.74
2019-04-04T11:04:17.898Z,23.75
2019-04-04T11:06:49.922Z,23.73
2019-04-04T11:09:22.206Z,23.75
2019-04-04T11:11:53.905Z,23.76
2019-04-04T11:14:25.752Z,23.74
2019-04-04T11:16:57.578Z,23.76
2019-04-04T11:19:32.332Z,23.75
2019-04-04T11:22:06.565Z,23.76
2019-04-04T11:24:38.360Z,23.77
2019-04-04T11:27:10.243Z,23.77
2019-04-04T11:29:42.331Z,23.77
2019-04-04T11:32:18.378Z,23.75
2019-04-04T11:34:53.645Z,23.77
2019-04-04T11:37:25.439Z,23.75
2019-04-04T11:39:57.260Z,23.74
2019-04-04T11:42:40.947Z,23.73
2019-04-04T11:45:13.263Z,23.72
2019-04-04T11:47:45.109Z,23.72
2019-04-04T11:50:17.436Z,23.71
2019-04-04T11:52:49.679Z,23.72
2019-04-04T11:55:21.469Z,23.71
2019-04-04T11:57:54.479Z,23.71
2019-04-04T12:00:29.617Z,23.70
2019-04-04T12:03:01.780Z,23.70
2019-04-04T12:05:34.481Z,23.69
2019-04-04T12:08:07.598Z,23.70
2019-04-04T12:10:41.194Z,23.70
2019-04-04T12:13:13.170Z,23.68
2019-04-04T12:15:50.362Z,23.67
2019-04-04T12:18:22.211Z,23.67
2019-04-04T12:20:54.214Z,23.68
2019-04-04T12:23:26.199Z,23.67
2019-04-04T12:25:57.972Z,23.67
2019-04-04T12:28:30.343Z,23.65
2019-04-04T12:31:02.211Z,23.65
2019-04-04T12:33:36.401Z,23.65
2019-04-04T12:36:08.691Z,23.65
2019-04-04T12:38:40.753Z,23.63
2019-04-04T12:41:12.796Z,23.63
2019-04-04T12:43:44.788Z,23.62
2019-04-04T12:46:17.524Z,23.62
2019-04-04T12:48:49.445Z,23.61
2019-04-04T12:51:21.504Z,23.61
2019-04-04T12:53:58.271Z,23.60
2019-04-04T12:56:30.483Z,23.58
2019-04-04T12:59:02.452Z,23.59
2019-04-04T13:01:34.264Z,23.56
2019-04-04T13:04:09.765Z,23.56
2019-04-04T13:06:51.874Z,23.55
2019-04-04T13:09:24.384Z,23.55
2019-04-04T13:11:56.752Z,23.54
2019-04-04T13:14:28.923Z,23.53
2019-04-04T13:17:00.963Z,23.51
2019-04-04T13:19:32.663Z,23.50
2019-04-04T13:22:04.418Z,23.47
2019-04-04T13:24:36.164Z,23.47
2019-04-04T13:27:08.190Z,23.45
2019-04-04T13:29:45.157Z,23.44
2019-04-04T13:32:17.437Z,23.45
2019-04-04T13:34:58.673Z,23.44
2019-04-04T13:37:22.799Z,23.43
2019-04-04T13:39:54.653Z,23.41
2019-04-04T13:42:28.142Z,23.39
2019-04-04T13:45:00.027Z,23.39
2019-04-04T13:47:32.435Z,23.39
2019-04-04T13:50:06.585Z,23.39
2019-04-04T13:52:38.911Z,23.38
2019-04-04T13:55:10.769Z,23.37
2019-04-04T13:57:47.290Z,23.37
2019-04-04T14:00:17.914Z,23.36
2019-04-04T14:02:49.734Z,23.36
2019-04-04T14:05:21.396Z,23.39
2019-04-04T14:07:53.865Z,23.37
2019-04-04T14:10:25.992Z,23.37
2019-04-04T14:12:59.146Z,23.37
2019-04-04T14:15:31.266Z,23.37
2019-04-04T14:18:07.708Z,23.35
2019-04-04T14:20:38.876Z,23.35
2019-04-04T14:23:10.743Z,23.30
2019-04-04T14:25:42.667Z,23.29
2019-04-04T14:28:16.097Z,23.33
2019-04-04T14:30:50.791Z,23.35
2019-04-04T14:33:24.168Z,23.39
2019-04-04T14:36:00.909Z,23.42
2019-04-04T14:38:35.995Z,23.45
2019-04-04T14:41:11.605Z,23.47
2019-04-04T14:43:41.702Z,23.50
2019-04-04T14:46:15.136Z,23.51
2019-04-04T14:48:46.982Z,23.52
2019-04-04T14:51:18.819Z,23.55
2019-04-04T14:53:50.857Z,23.55
2019-04-04T14:56:22.712Z,23.56
2019-04-04T14:58:57.781Z,23.58
2019-04-04T15:01:29.705Z,23.58
2019-04-04T15:04:01.994Z,23.58
2019-04-04T15:06:35.409Z,23.58
2019-04-04T15:09:09.793Z,23.59
2019-04-04T15:11:41.877Z,23.58
2019-04-04T15:14:15.184Z,23.59
2019-04-04T15:16:47.026Z,23.61
2019-04-04T15:19:19.053Z,23.60
2019-04-04T15:21:59.194Z,23.61
2019-04-04T15:24:33.090Z,23.61
2019-04-04T15:27:05.315Z,23.61
2019-04-04T15:29:36.964Z,23.61
2019-04-04T15:32:26.237Z,23.61
2019-04-04T15:34:57.844Z,23.61
2019-04-04T15:37:29.901Z,23.62
2019-04-04T15:40:01.638Z,23.61
2019-04-04T15:42:33.722Z,23.61
2019-04-04T15:45:07.686Z,23.61
2019-04-04T15:47:39.316Z,23.61
2019-04-04T15:50:11.167Z,23.61
2019-04-04T15:52:44.582Z,23.61
2019-04-04T15:55:16.481Z,23.61
2019-04-04T15:57:48.283Z,23.61
2019-04-04T16:00:20.299Z,23.63
2019-04-04T16:02:52.376Z,23.61
2019-04-04T16:05:24.792Z,23.61
2019-04-04T16:07:56.610Z,23.62
2019-04-04T16:10:48.219Z,23.62
2019-04-04T16:13:17.612Z,23.62
2019-04-04T16:15:50.639Z,23.63
2019-04-04T16:18:22.601Z,23.63
2019-04-04T16:21:12.170Z,23.62
2019-04-04T16:23:43.829Z,23.62
2019-04-04T16:26:16.005Z,23.61
2019-04-04T16:28:47.708Z,23.63
2019-04-04T16:31:19.551Z,23.64
2019-04-04T16:33:51.854Z,23.62
2019-04-04T16:36:23.645Z,23.61
2019-04-04T16:38:55.357Z,23.62
2019-04-04T16:41:27.220Z,23.61
2019-04-04T16:43:59.846Z,23.60
2019-04-04T16:46:31.602Z,23.59
2019-04-04T16:49:03.340Z,23.60
2019-04-04T16:51:35.371Z,23.60
2019-04-04T16:54:07.097Z,23.58
2019-04-04T16:56:39.257Z,23.58
2019-04-04T16:59:10.946Z,23.57
2019-04-04T17:01:43.077Z,23.56
2019-04-04T17:04:14.789Z,23.57
2019-04-04T17:06:47.135Z,23.57
2019-04-04T17:09:19.166Z,23.55
2019-04-04T17:11:51.127Z,23.52
2019-04-04T17:14:23.067Z,23.52
2019-04-04T17:16:54.883Z,23.53
2019-04-04T17:19:26.651Z,23.52
2019-04-04T17:21:58.380Z,23.54
2019-04-04T17:24:29.994Z,23.55
2019-04-04T17:27:02.382Z,23.55
2019-04-04T17:29:38.830Z,23.56
2019-04-04T17:32:12.158Z,23.56
2019-04-04T17:34:44.265Z,23.58
2019-04-04T17:37:16.612Z,23.63
2019-04-04T17:39:50.237Z,23.63
2019-04-04T17:42:30.260Z,23.64
2019-04-04T17:44:55.897Z,23.64
2019-04-04T17:47:30.510Z,23.64
2019-04-04T17:50:02.045Z,23.63
2019-04-04T17:52:34.272Z,23.62
2019-04-04T17:55:07.482Z,23.62
2019-04-04T17:57:39.752Z,23.62
2019-04-04T18:00:12.020Z,23.60
2019-04-04T18:02:44.067Z,23.60
2019-04-04T18:05:15.810Z,23.58
2019-04-04T18:07:47.898Z,23.59
2019-04-04T18:10:21.103Z,23.59
2019-04-04T18:12:52.819Z,23.59
2019-04-04T18:15:27.733Z,23.59
2019-04-04T18:17:59.422Z,23.58
2019-04-04T18:20:36.317Z,23.59
2019-04-04T18:23:08.208Z,23.58
2019-04-04T18:25:40.068Z,23.58
2019-04-04T18:28:13.376Z,23.58
2019-04-04T18:31:06.591Z,23.60
2019-04-04T18:33:35.790Z,23.60
2019-04-04T18:36:10.928Z,23.60
2019-04-04T18:38:44.683Z,23.60
2019-04-04T18:41:25.973Z,23.59
2019-04-04T18:43:59.830Z,23.61
2019-04-04T18:46:39.634Z,23.63
2019-04-04T18:49:11.142Z,23.65
2019-04-04T18:51:43.113Z,23.67
2019-04-04T18:54:15.346Z,23.70
2019-04-04T18:56:47.139Z,23.29
2019-04-04T18:59:18.880Z,22.99
2019-04-04T19:01:50.659Z,22.81
2019-04-04T19:04:22.374Z,22.63
2019-04-04T19:06:54.591Z,22.57
2019-04-04T19:09:29.296Z,22.49
2019-04-04T19:12:04.932Z,22.38
2019-04-04T19:14:40.437Z,22.31
2019-04-04T19:17:13.871Z,22.25
2019-04-04T19:19:45.975Z,22.17
2019-04-04T19:22:17.761Z,22.11
2019-04-04T19:24:49.606Z,22.06
2019-04-04T19:27:21.432Z,22.17
2019-04-04T19:29:53.229Z,22.39
2019-04-04T19:32:28.107Z,22.46
2019-04-04T19:35:08.727Z,22.33
2019-04-04T19:37:40.493Z,22.18
2019-04-04T19:43:26.747Z,22.05
2019-04-04T19:46:36.450Z,22.05
2019-04-04T19:48:41.307Z,21.97
2019-04-04T19:51:13.305Z,21.90
2019-04-04T19:53:45.219Z,21.83
2019-04-04T19:56:17.051Z,21.82
2019-04-04T19:58:51.063Z,21.75
2019-04-04T20:01:25.587Z,21.72
2019-04-04T20:03:56.663Z,21.72
2019-04-04T20:06:30.652Z,21.70
2019-04-04T20:09:02.920Z,21.66
2019-04-04T20:11:38.873Z,21.64
2019-04-04T20:14:08.360Z,21.64
2019-04-04T20:16:40.075Z,21.60
2019-04-04T20:19:12.498Z,21.58
2019-04-04T20:21:44.133Z,21.53
2019-04-04T20:24:16.087Z,21.46
2019-04-04T20:26:47.974Z,21.43
2019-04-04T20:29:19.772Z,21.68
2019-04-04T20:31:51.502Z,21.96
2019-04-04T20:34:23.344Z,22.17
2019-04-04T20:36:54.946Z,22.34
2019-04-04T20:39:28.667Z,22.49
2019-04-04T20:42:00.805Z,22.64
2019-04-04T20:44:32.549Z,22.78
2019-04-04T20:47:04.211Z,22.90
2019-04-04T20:49:36.077Z,23.00
2019-04-04T20:52:07.779Z,23.07
2019-04-04T20:54:39.659Z,23.17
2019-04-04T20:57:11.510Z,23.23
2019-04-04T20:59:44.648Z,23.29
2019-04-04T21:02:16.392Z,23.33
2019-04-04T21:04:48.054Z,23.38
2019-04-04T21:07:21.474Z,23.43
2019-04-04T21:09:53.143Z,23.48
2019-04-04T21:12:26.478Z,23.51
2019-04-04T21:14:58.288Z,23.52
2019-04-04T21:17:33.535Z,23.55
2019-04-04T21:20:06.962Z,23.61
2019-04-04T21:22:39.018Z,23.60
2019-04-04T21:25:11.528Z,23.63
2019-04-04T21:27:43.648Z,23.66
2019-04-04T21:30:15.515Z,23.69
2019-04-04T21:32:47.273Z,23.69
2019-04-04T21:35:19.054Z,23.72
2019-04-04T21:37:51.160Z,23.71
2019-04-04T21:40:22.916Z,23.75
2019-04-04T21:42:54.658Z,23.75
2019-04-04T21:45:26.394Z,23.75
2019-04-04T21:47:58.113Z,23.77
2019-04-04T21:50:29.841Z,23.79
2019-04-04T21:53:02.006Z,23.80
2019-04-04T21:55:33.677Z,23.77
2019-04-04T21:58:05.579Z,23.81
2019-04-04T22:00:39.181Z,23.81
2019-04-04T22:03:11.279Z,23.82
2019-04-04T22:05:42.925Z,23.82
2019-04-04T22:08:18.883Z,23.82
2019-04-04T22:10:50.921Z,23.85
2019-04-04T22:13:22.713Z,23.84
2019-04-04T22:15:54.549Z,23.85
2019-04-04T22:18:30.463Z,23.84
2019-04-04T22:21:02.427Z,23.83
2019-04-04T22:23:35.105Z,23.84
2019-04-04T22:26:06.821Z,23.85
2019-04-04T22:28:38.946Z,23.85
2019-04-04T22:31:11.020Z,23.84
2019-04-04T22:33:42.855Z,23.83
2019-04-04T22:36:14.743Z,23.84
2019-04-04T22:38:46.608Z,23.84
2019-04-04T22:41:18.893Z,23.84
2019-04-04T22:44:02.961Z,23.83
2019-04-04T22:46:24.582Z,23.83
2019-04-04T22:48:56.630Z,23.82
2019-04-04T22:51:28.980Z,23.84
2019-04-04T22:54:00.861Z,23.81
2019-04-04T22:56:32.444Z,23.82
2019-04-04T22:59:04.342Z,23.82
2019-04-04T23:01:36.145Z,23.81
2019-04-04T23:04:08.132Z,23.81
2019-04-04T23:06:40.246Z,23.80
2019-04-04T23:09:12.360Z,23.81
2019-04-04T23:11:44.256Z,23.81
2019-04-04T23:14:15.922Z,23.80
2019-04-04T23:16:47.826Z,23.80
2019-04-04T23:19:19.567Z,23.81
2019-04-04T23:21:51.311Z,23.82
2019-04-04T23:24:23.231Z,23.82
2019-04-04T23:26:55.278Z,23.81
2019-04-04T23:29:26.972Z,23.80
2019-04-04T23:31:58.944Z,23.80
2019-04-04T23:34:30.738Z,23.81
2019-04-04T23:37:02.493Z,23.80
2019-04-04T23:39:34.773Z,23.81
2019-04-04T23:42:06.614Z,23.81
2019-04-04T23:44:38.464Z,23.80
2019-04-04T23:47:10.491Z,23.81
2019-04-04T23:49:42.129Z,23.81
2019-04-04T23:52:14.248Z,23.81
2019-04-04T23:54:46.786Z,23.81
2019-04-04T23:57:19.063Z,23.81
2019-04-04T23:59:50.811Z,23.81
